Time;durP1;ratioP1;P1;durP2;ratioP2;P2;SDS_P1;SDS_P2;PMS_P1;PMS_P2;Temp;Humidity;BMP_temperature;BMP_pressure;BME280_temperature;BME280_humidity;BME280_pressure;Samples;Min_cycle;Max_cycle;Signal;HPM_P1;HPM_P2
2023/07/31 00:03:19;;;;;;;0.73;0.40;;;;;;;;;;20777566;28;20319;-70
2023/07/31 00:13:21;;;;;;;1.33;0.47;;;;;;;;;;20785330;28;20233;-70
2023/07/31 00:23:24;;;;;;;2.03;0.60;;;;;;;;;;20798304;28;20236;-70
2023/07/31 00:33:25;;;;;;;1.50;0.53;;;;;;;;;;20897773;28;20276;-70
2023/07/31 00:43:27;;;;;;;0.60;0.50;;;;;;;;;;20866871;28;20696;-70
2023/07/31 00:53:29;;;;;;;0.73;0.50;;;;;;;;;;20861387;28;20217;-70
2023/07/31 01:03:31;;;;;;;1.73;0.50;;;;;;;;;;20812272;28;20697;-70
2023/07/31 01:13:33;;;;;;;1.40;0.50;;;;;;;;;;20853920;28;20229;-71
2023/07/31 01:23:41;;;;;;;1.40;0.60;;;;;;;;;;20811183;28;20276;-71
2023/07/31 01:33:43;;;;;;;1.53;0.83;;;;;;;;;;20876302;28;20216;-71
2023/07/31 01:43:46;;;;;;;0.97;0.50;;;20.70;99.90;;;;;;20848254;28;20287;-70
2023/07/31 01:53:48;;;;;;;0.70;0.50;;;;;;;;;;20852386;28;20283;-70
2023/07/31 02:03:49;;;;;;;1.47;0.77;;;;;;;;;;20863001;28;20219;-70
2023/07/31 02:13:51;;;;;;;1.20;0.60;;;;;;;;;;20863676;28;20298;-70
2023/07/31 02:23:53;;;;;;;1.17;0.43;;;;;;;;;;20818910;28;20221;-72
2023/07/31 02:33:55;;;;;;;1.60;0.70;;;;;;;;;;20819595;28;20229;-70
2023/07/31 02:43:56;;;;;;;1.63;0.60;;;;;;;;;;20825887;28;20233;-71
2023/07/31 02:53:58;;;;;;;1.37;0.60;;;;;;;;;;20837750;28;20744;-71
2023/07/31 03:04:00;;;;;;;1.00;0.57;;;;;;;;;;20876784;28;20639;-70
2023/07/31 03:14:02;;;;;;;1.30;0.70;;;;;;;;;;20814442;28;20227;-70
2023/07/31 03:24:04;;;;;;;1.70;0.93;;;;;;;;;;20795860;28;20294;-70
2023/07/31 03:34:06;;;;;;;0.80;0.40;;;;;;;;;;20808827;28;20212;-72
2023/07/31 03:44:08;;;;;;;0.93;0.60;;;;;;;;;;20829585;28;20240;-68
2023/07/31 03:54:10;;;;;;;0.90;0.50;;;;;;;;;;20804337;28;20576;-69
2023/07/31 04:04:12;;;;;;;2.07;0.60;;;;;;;;;;20772802;28;20227;-68
2023/07/31 04:14:15;;;;;;;1.60;0.60;;;;;;;;;;20853244;28;20289;-68
2023/07/31 04:24:23;;;;;;;1.23;0.60;;;;;;;;;;20835672;28;20237;-70
2023/07/31 04:34:25;;;;;;;0.93;0.50;;;;;;;;;;20790096;28;20224;-70
2023/07/31 04:44:27;;;;;;;1.10;0.40;;;;;;;;;;20797711;28;20702;-70
2023/07/31 04:54:29;;;;;;;1.77;0.50;;;;;;;;;;20805061;28;20293;-70
2023/07/31 05:04:32;;;;;;;1.07;0.60;;;;;;;;;;20824806;28;20648;-70
2023/07/31 05:14:34;;;;;;;0.53;0.40;;;;;;;;;;20830450;28;20920;-70
2023/07/31 05:24:39;;;;;;;1.27;0.57;;;;;;;;;;20815322;28;20239;-70
2023/07/31 05:34:40;;;;;;;1.73;0.60;;;;;;;;;;20846331;28;20212;-70
2023/07/31 05:44:43;;;;;;;1.20;0.67;;;;;;;;;;20874024;28;20279;-70
2023/07/31 05:54:48;;;;;;;1.77;0.73;;;;;;;;;;20817442;28;20641;-71
2023/07/31 06:04:49;;;;;;;1.67;0.70;;;;;;;;;;20872108;28;20232;-71
2023/07/31 06:14:51;;;;;;;2.23;0.60;;;;;;;;;;20809391;28;21301;-73
2023/07/31 06:24:53;;;;;;;1.80;0.60;;;;;;;;;;20892016;28;20220;-74
2023/07/31 06:34:55;;;;;;;1.93;0.60;;;;;;;;;;20899479;28;20785;-71
2023/07/31 06:44:57;;;;;;;0.90;0.63;;;;;;;;;;20844497;28;20228;-73
2023/07/31 06:55:15;;;;;;;2.37;0.70;;;19.90;99.90;;;;;;20808920;28;20578;-72
2023/07/31 07:05:17;;;;;;;2.07;0.53;;;19.90;99.90;;;;;;20792042;28;20290;-72
2023/07/31 07:15:19;;;;;;;1.90;0.60;;;;;;;;;;20791444;28;20211;-72
2023/07/31 07:25:21;;;;;;;0.47;0.47;;;;;;;;;;20774206;28;20229;-71
2023/07/31 07:35:23;;;;;;;1.10;0.53;;;;;;;;;;20805964;28;20638;-72
2023/07/31 07:45:25;;;;;;;1.50;0.90;;;;;;;;;;20756241;28;20233;-72
2023/07/31 07:55:27;;;;;;;1.83;0.77;;;;;;;;;;20856326;28;20248;-71
2023/07/31 08:05:29;;;;;;;1.43;0.50;;;;;;;;;;20868886;28;20774;-70
2023/07/31 08:15:30;;;;;;;1.37;0.57;;;;;;;;;;20825514;28;20245;-70
2023/07/31 08:25:35;;;;;;;1.53;0.53;;;;;;;;;;20853047;28;20247;-71
2023/07/31 08:35:37;;;;;;;1.88;0.80;;;;;;;;;;20861444;28;20268;-72
2023/07/31 08:45:39;;;;;;;1.63;0.70;;;;;;;;;;20769574;28;20683;-71
2023/07/31 08:55:41;;;;;;;2.10;0.90;;;;;;;;;;20816877;28;20222;-71
2023/07/31 09:05:45;;;;;;;1.42;0.70;;;22.90;99.90;;;;;;20784328;28;20271;-71
2023/07/31 09:15:47;;;;;;;0.75;0.40;;;;;;;;;;20841204;28;20570;-71
2023/07/31 09:25:49;;;;;;;2.35;0.90;;;;;;;;;;20866123;28;20228;-70
2023/07/31 09:35:51;;;;;;;3.42;1.20;;;;;;;;;;20864263;28;20221;-70
2023/07/31 09:45:56;;;;;;;2.13;0.73;;;23.20;99.90;;;;;;20896650;28;20287;-71
2023/07/31 09:55:59;;;;;;;3.60;1.30;;;;;;;;;;20843574;28;20223;-71
2023/07/31 10:06:02;;;;;;;1.50;0.82;;;;;;;;;;20796357;28;20239;-71
2023/07/31 10:16:05;;;;;;;1.55;0.90;;;;;;;;;;20795479;28;20212;-71
2023/07/31 10:26:08;;;;;;;2.70;0.93;;;;;;;;;;20778221;28;20225;-71
2023/07/31 10:36:28;;;;;;;4.05;1.35;;;;;;;;;;20794260;28;20209;-72
2023/07/31 10:46:30;;;;;;;2.08;1.05;;;;;;;;;;20776234;28;20292;-72
2023/07/31 10:56:38;;;;;;;1.23;0.68;;;22.90;99.90;;;;;;20791633;28;20252;-71
2023/07/31 11:06:40;;;;;;;2.80;1.10;;;;;;;;;;20775620;28;20222;-71
2023/07/31 11:16:42;;;;;;;1.80;0.90;;;;;;;;;;20829171;28;20285;-71
2023/07/31 11:26:53;;;;;;;1.60;0.80;;;23.20;99.90;;;;;;20872880;28;20293;-70
2023/07/31 11:36:55;;;;;;;1.40;0.90;;;;;;;;;;20855730;28;20222;-71
2023/07/31 11:46:58;;;;;;;4.50;1.63;;;;;;;;;;20887413;28;20609;-71
2023/07/31 11:57:01;;;;;;;1.02;0.60;;;;;;;;;;20824481;28;20282;-71
2023/07/31 12:07:03;;;;;;;2.05;0.85;;;;;;;;;;20776799;28;20239;-72
2023/07/31 12:17:07;;;;;;;1.60;0.70;;;;;;;;;;20856769;28;20275;-72
2023/07/31 12:27:18;;;;;;;1.30;0.70;;;;;;;;;;20845878;28;20245;-72
2023/07/31 12:37:21;;;;;;;6.65;1.48;;;;;;;;;;20859120;28;20686;-72
2023/07/31 12:47:23;;;;;;;1.60;0.75;;;;;;;;;;20855551;28;20286;-72
2023/07/31 12:57:26;;;;;;;1.27;0.60;;;;;;;;;;20827036;28;20229;-71
2023/07/31 13:07:28;;;;;;;1.33;0.85;;;;;;;;;;20822167;28;20608;-72
2023/07/31 13:17:29;;;;;;;2.17;0.70;;;;;;;;;;20842104;28;20213;-72
2023/07/31 13:27:31;;;;;;;1.23;0.70;;;;;;;;;;20800458;28;20219;-71
2023/07/31 13:37:33;;;;;;;2.60;0.90;;;;;;;;;;20839252;28;20537;-71
2023/07/31 13:47:36;;;;;;;1.67;0.93;;;;;;;;;;20807166;28;20599;-71
2023/07/31 13:57:38;;;;;;;2.10;0.75;;;;;;;;;;21062592;22;20219;-73
2023/07/31 14:07:40;;;;;;;2.85;1.10;;;;;;;;;;21165781;28;20207;-74
2023/07/31 14:17:41;;;;;;;2.60;0.80;;;;;;;;;;21159058;27;20216;-74
2023/07/31 14:27:43;;;;;;;4.93;1.08;;;;;;;;;;21161911;27;20258;-74
2023/07/31 14:37:45;;;;;;;1.17;0.70;;;;;;;;;;21152006;27;20214;-72
2023/07/31 14:47:47;;;;;;;2.13;0.70;;;;;;;;;;21102623;28;20778;-73
2023/07/31 14:57:49;;;;;;;1.35;0.60;;;;;;;;;;21142396;28;20253;-73
2023/07/31 15:07:51;;;;;;;3.10;0.90;;;;;;;;;;21154403;28;20271;-73
2023/07/31 15:17:53;;;;;;;3.33;0.88;;;;;;;;;;21155185;28;20640;-72
2023/07/31 15:27:54;;;;;;;2.20;0.90;;;;;;;;;;21137445;27;20230;-72
2023/07/31 15:37:56;;;;;;;1.27;0.60;;;;;;;;;;21164180;27;20271;-73
2023/07/31 15:47:58;;;;;;;1.95;0.70;;;;;;;;;;21170515;27;20272;-72
2023/07/31 15:58:00;;;;;;;2.45;1.08;;;;;;;;;;21124668;27;20225;-72
2023/07/31 16:08:02;;;;;;;1.83;0.90;;;;;;;;;;21164745;27;20251;-73
2023/07/31 16:18:04;;;;;;;1.48;0.80;;;;;;;;;;21150521;27;20217;-73
2023/07/31 16:28:05;;;;;;;1.73;0.90;;;;;;;;;;21142823;28;20840;-73
2023/07/31 16:38:07;;;;;;;2.28;0.85;;;;;;;;;;21108004;27;20538;-71
2023/07/31 16:48:09;;;;;;;2.67;0.93;;;;;;;;;;21135103;27;20705;-72
2023/07/31 16:58:11;;;;;;;1.50;0.95;;;;;;;;;;21130080;27;20240;-71
2023/07/31 17:08:14;;;;;;;1.70;0.90;;;;;;;;;;21148036;28;20217;-72
2023/07/31 17:18:16;;;;;;;3.35;1.00;;;;;;;;;;21141458;28;20270;-71
2023/07/31 17:28:17;;;;;;;1.73;0.82;;;;;;;;;;21115176;28;20610;-71
2023/07/31 17:38:19;;;;;;;2.05;0.93;;;;;;;;;;21143974;27;20273;-71
2023/07/31 17:48:21;;;;;;;1.23;0.70;;;;;;;;;;21173550;27;20248;-71
2023/07/31 17:58:22;;;;;;;1.58;0.70;;;;;;;;;;21167418;27;20616;-71
2023/07/31 18:08:24;;;;;;;0.80;0.60;;;;;;;;;;21121809;28;20239;-71
2023/07/31 18:18:26;;;;;;;1.55;0.70;;;;;;;;;;21138319;28;20227;-71
2023/07/31 18:28:28;;;;;;;1.42;0.73;;;;;;;;;;21150106;28;20263;-72
2023/07/31 18:38:31;;;;;;;1.52;0.70;;;;;;;;;;21085330;27;20281;-72
2023/07/31 18:48:33;;;;;;;0.77;0.45;;;;;;;;;;21069018;27;20217;-71
2023/07/31 18:58:35;;;;;;;1.10;0.68;;;;;;;;;;21159726;27;20282;-74
2023/07/31 19:08:37;;;;;;;1.55;0.60;;;;;;;;;;21152299;27;20223;-73
2023/07/31 19:18:38;;;;;;;1.58;0.77;;;;;;;;;;21109260;28;20767;-73
2023/07/31 19:28:40;;;;;;;1.27;0.80;;;;;;;;;;21116719;27;20289;-73
2023/07/31 19:38:42;;;;;;;1.10;0.70;;;;;;;;;;21176512;27;20212;-73
2023/07/31 19:48:44;;;;;;;0.95;0.55;;;;;;;;;;21134681;27;20728;-73
2023/07/31 19:58:46;;;;;;;1.13;0.80;;;;;;;;;;21156822;27;20235;-73
2023/07/31 20:08:48;;;;;;;1.58;0.60;;;;;;;;;;21100418;22;20223;-70
2023/07/31 20:18:49;;;;;;;0.90;0.60;;;;;;;;;;20935480;28;20587;-70
2023/07/31 20:28:51;;;;;;;1.35;0.68;;;;;;;;;;20885709;28;20228;-71
2023/07/31 20:38:53;;;;;;;0.90;0.60;;;;;;;;;;20847403;28;20550;-71
2023/07/31 20:48:55;;;;;;;1.47;1.00;;;;;;;;;;20881460;28;20235;-71
2023/07/31 20:58:57;;;;;;;0.97;0.50;;;;;;;;;;20962276;28;20734;-70
2023/07/31 21:08:59;;;;;;;2.03;0.80;;;;;;;;;;20938483;28;20219;-70
2023/07/31 21:19:01;;;;;;;1.03;0.70;;;;;;;;;;20952562;28;20625;-70
2023/07/31 21:29:03;;;;;;;1.47;0.77;;;;;;;;;;20949814;28;20771;-70
2023/07/31 21:39:05;;;;;;;2.23;0.73;;;;;;;;;;20900113;28;20293;-70
2023/07/31 21:49:07;;;;;;;2.33;0.73;;;;;;;;;;20885446;28;20867;-70
2023/07/31 21:59:09;;;;;;;1.77;0.80;;;;;;;;;;20978689;28;20224;-70
2023/07/31 22:09:11;;;;;;;1.13;0.63;;;;;;;;;;20892040;28;20284;-70
2023/07/31 22:19:12;;;;;;;1.17;0.67;;;;;;;;;;20878557;28;20211;-70
2023/07/31 22:29:14;;;;;;;1.50;0.87;;;;;;;;;;20862420;28;20228;-70
2023/07/31 22:39:16;;;;;;;0.80;0.70;;;;;;;;;;20859720;28;20578;-70
2023/07/31 22:49:18;;;;;;;1.33;0.70;;;;;;;;;;20972785;28;20642;-70
2023/07/31 22:59:20;;;;;;;1.40;0.70;;;;;;;;;;20888187;28;20242;-70
2023/07/31 23:09:21;;;;;;;2.03;0.97;;;;;;;;;;20841855;28;20244;-70
2023/07/31 23:19:24;;;;;;;1.83;0.77;;;;;;;;;;20866863;28;20911;-69
2023/07/31 23:29:26;;;;;;;1.17;0.70;;;;;;;;;;20967188;28;20222;-70
2023/07/31 23:39:27;;;;;;;1.83;0.90;;;;;;;;;;20938355;28;20250;-69
2023/07/31 23:49:29;;;;;;;1.43;0.80;;;;;;;;;;20920071;28;20565;-69
2023/07/31 23:59:31;;;;;;;2.10;0.70;;;;;;;;;;20936083;28;20278;-69
